<?xml version="1.0" encoding="utf-8"?>
<gpx xmlns:xsi="http://www.w3.org/2001/XMLSchema-instance" xmlns:xsd="http://www.w3.org/2001/XMLSchema" version="1.1" creator="Shapelink.com" xmlns="http://www.topografix.com/GPX/1/1" xmlns:gpxtpx="http://www.garmin.com/xmlschemas/TrackPointExtension/v1">
  <metadata>
    <name>Cycling 8.68 km, 2020-06-23</name>
    <desc></desc>
    <author><name>Marian Moron</name></author> 
    <time>2020-06-23T18:51:47Z</time>
  </metadata>
  <trk>
    <name>Cycling 8.68 km, 2020-06-23</name>
    <trkseg>
      <trkpt lat="51.228668919502" lon="4.449283846036">
        <ele>0</ele>
        <time>2020-06-23T18:51:47Z</time>
      </trkpt>
      <trkpt lat="51.228883328504" lon="4.448921496499">
        <ele>0</ele>
        <time>2020-06-23T18:52:09Z</time>
      </trkpt>
      <trkpt lat="51.229016600714" lon="4.448751511567">
        <ele>0</ele>
        <time>2020-06-23T18:52:22Z</time>
      </trkpt>
      <trkpt lat="51.229371993274" lon="4.449390379985">
        <ele>3.6</ele>
        <time>2020-06-23T18:52:50Z</time>
      </trkpt>
      <trkpt lat="51.229455057903" lon="4.449892371976">
        <ele>6.8</ele>
        <time>2020-06-23T18:53:09Z</time>
      </trkpt>
      <trkpt lat="51.229617499125" lon="4.450732825089">
        <ele>7.6</ele>
        <time>2020-06-23T18:53:29Z</time>
      </trkpt>
      <trkpt lat="51.229680866289" lon="4.451025437218">
        <ele>5.6</ele>
        <time>2020-06-23T18:53:37Z</time>
      </trkpt>
      <trkpt lat="51.229723865436" lon="4.45105125347">
        <ele>5.4</ele>
        <time>2020-06-23T18:53:39Z</time>
      </trkpt>
      <trkpt lat="51.230265336176" lon="4.450859559417">
        <ele>4</ele>
        <time>2020-06-23T18:53:58Z</time>
      </trkpt>
      <trkpt lat="51.230472955839" lon="4.450860313788">
        <ele>3</ele>
        <time>2020-06-23T18:54:11Z</time>
      </trkpt>
      <trkpt lat="51.230441942809" lon="4.450764508671">
        <ele>3.2</ele>
        <time>2020-06-23T18:58:48Z</time>
      </trkpt>
      <trkpt lat="51.230418724946" lon="4.450731986899">
        <ele>3</ele>
        <time>2020-06-23T18:58:50Z</time>
      </trkpt>
      <trkpt lat="51.230335995593" lon="4.450729556148">
        <ele>2.4</ele>
        <time>2020-06-23T18:58:55Z</time>
      </trkpt>
      <trkpt lat="51.229793351387" lon="4.45087858633">
        <ele>0</ele>
        <time>2020-06-23T18:59:23Z</time>
      </trkpt>
      <trkpt lat="51.229694780243" lon="4.45087355719">
        <ele>0</ele>
        <time>2020-06-23T18:59:29Z</time>
      </trkpt>
      <trkpt lat="51.229528818623" lon="4.450069649161">
        <ele>0</ele>
        <time>2020-06-23T18:59:57Z</time>
      </trkpt>
      <trkpt lat="51.229385152857" lon="4.449193656792">
        <ele>0</ele>
        <time>2020-06-23T19:00:18Z</time>
      </trkpt>
      <trkpt lat="51.229079967878" lon="4.448450685176">
        <ele>0</ele>
        <time>2020-06-23T19:00:38Z</time>
      </trkpt>
      <trkpt lat="51.228706386595" lon="4.447822377952">
        <ele>0.6</ele>
        <time>2020-06-23T19:00:57Z</time>
      </trkpt>
      <trkpt lat="51.22831788553" lon="4.447208319958">
        <ele>5.6</ele>
        <time>2020-06-23T19:01:20Z</time>
      </trkpt>
      <trkpt lat="51.228215374893" lon="4.447212427089">
        <ele>4</ele>
        <time>2020-06-23T19:01:27Z</time>
      </trkpt>
      <trkpt lat="51.22816701133" lon="4.4471260097">
        <ele>2.8</ele>
        <time>2020-06-23T19:01:31Z</time>
      </trkpt>
      <trkpt lat="51.228128119314" lon="4.447126596433">
        <ele>2.6</ele>
        <time>2020-06-23T19:01:33Z</time>
      </trkpt>
      <trkpt lat="51.227718747318" lon="4.447689441018">
        <ele>1.2</ele>
        <time>2020-06-23T19:01:56Z</time>
      </trkpt>
      <trkpt lat="51.227311470797" lon="4.448275587285">
        <ele>3.2</ele>
        <time>2020-06-23T19:02:22Z</time>
      </trkpt>
      <trkpt lat="51.226988180914" lon="4.448957706307">
        <ele>21.4</ele>
        <time>2020-06-23T19:02:49Z</time>
      </trkpt>
      <trkpt lat="51.22653254083" lon="4.449476043003">
        <ele>11.2</ele>
        <time>2020-06-23T19:03:16Z</time>
      </trkpt>
      <trkpt lat="51.226098106953" lon="4.450051879533">
        <ele>5</ele>
        <time>2020-06-23T19:03:41Z</time>
      </trkpt>
      <trkpt lat="51.225682699989" lon="4.450654621962">
        <ele>3.4</ele>
        <time>2020-06-23T19:04:04Z</time>
      </trkpt>
      <trkpt lat="51.225344993238" lon="4.451322994668">
        <ele>9.6</ele>
        <time>2020-06-23T19:04:32Z</time>
      </trkpt>
      <trkpt lat="51.225067971443" lon="4.452099577703">
        <ele>9.8</ele>
        <time>2020-06-23T19:04:55Z</time>
      </trkpt>
      <trkpt lat="51.225028660332" lon="4.452201166331">
        <ele>8.4</ele>
        <time>2020-06-23T19:04:58Z</time>
      </trkpt>
      <trkpt lat="51.224477466588" lon="4.452060182773">
        <ele>4.6</ele>
        <time>2020-06-23T19:05:19Z</time>
      </trkpt>
      <trkpt lat="51.22396600305" lon="4.451781484598">
        <ele>0</ele>
        <time>2020-06-23T19:05:41Z</time>
      </trkpt>
      <trkpt lat="51.223813201013" lon="4.451733791587">
        <ele>0</ele>
        <time>2020-06-23T19:05:48Z</time>
      </trkpt>
      <trkpt lat="51.223472812054" lon="4.452420520654">
        <ele>0</ele>
        <time>2020-06-23T19:06:12Z</time>
      </trkpt>
      <trkpt lat="51.223145750316" lon="4.453136251095">
        <ele>0</ele>
        <time>2020-06-23T19:06:34Z</time>
      </trkpt>
      <trkpt lat="51.222809217031" lon="4.453818789212">
        <ele>4</ele>
        <time>2020-06-23T19:07:06Z</time>
      </trkpt>
      <trkpt lat="51.222762781305" lon="4.45409304498">
        <ele>11.8</ele>
        <time>2020-06-23T19:07:16Z</time>
      </trkpt>
      <trkpt lat="51.222242600591" lon="4.454234196176">
        <ele>6</ele>
        <time>2020-06-23T19:07:42Z</time>
      </trkpt>
      <trkpt lat="51.222045542122" lon="4.45424894832">
        <ele>2.8</ele>
        <time>2020-06-23T19:07:53Z</time>
      </trkpt>
      <trkpt lat="51.22150340083" lon="4.454247691035">
        <ele>3.4</ele>
        <time>2020-06-23T19:08:24Z</time>
      </trkpt>
      <trkpt lat="51.221050107678" lon="4.454291612191">
        <ele>4</ele>
        <time>2020-06-23T19:08:48Z</time>
      </trkpt>
      <trkpt lat="51.220642747338" lon="4.454405019298">
        <ele>5.4</ele>
        <time>2020-06-23T19:09:13Z</time>
      </trkpt>
      <trkpt lat="51.220261538526" lon="4.455027291554">
        <ele>0.2</ele>
        <time>2020-06-23T19:09:36Z</time>
      </trkpt>
      <trkpt lat="51.219880832628" lon="4.45541403242">
        <ele>0.4</ele>
        <time>2020-06-23T19:09:56Z</time>
      </trkpt>
      <trkpt lat="51.219894578944" lon="4.455529451183">
        <ele>1.2</ele>
        <time>2020-06-23T19:10:03Z</time>
      </trkpt>
      <trkpt lat="51.219411949142" lon="4.455934799867">
        <ele>0</ele>
        <time>2020-06-23T19:10:29Z</time>
      </trkpt>
      <trkpt lat="51.21891087916" lon="4.456287929314">
        <ele>0.2</ele>
        <time>2020-06-23T19:10:52Z</time>
      </trkpt>
      <trkpt lat="51.218431099204" lon="4.456701240803">
        <ele>0</ele>
        <time>2020-06-23T19:11:15Z</time>
      </trkpt>
      <trkpt lat="51.218014937869" lon="4.457173309411">
        <ele>0</ele>
        <time>2020-06-23T19:11:42Z</time>
      </trkpt>
      <trkpt lat="51.217984595391" lon="4.457593158782">
        <ele>0</ele>
        <time>2020-06-23T19:12:01Z</time>
      </trkpt>
      <trkpt lat="51.21797042998" lon="4.458452554989">
        <ele>0</ele>
        <time>2020-06-23T19:12:29Z</time>
      </trkpt>
      <trkpt lat="51.21797881188" lon="4.459315723051">
        <ele>2.8</ele>
        <time>2020-06-23T19:12:54Z</time>
      </trkpt>
      <trkpt lat="51.217982751373" lon="4.459509931674">
        <ele>2.8</ele>
        <time>2020-06-23T19:13:02Z</time>
      </trkpt>
      <trkpt lat="51.217863309298" lon="4.460367316225">
        <ele>1.2</ele>
        <time>2020-06-23T19:13:35Z</time>
      </trkpt>
      <trkpt lat="51.217857525787" lon="4.461242218947">
        <ele>0</ele>
        <time>2020-06-23T19:14:00Z</time>
      </trkpt>
      <trkpt lat="51.217830703707" lon="4.462110835244">
        <ele>2.4</ele>
        <time>2020-06-23T19:14:25Z</time>
      </trkpt>
      <trkpt lat="51.217779155022" lon="4.462986743794">
        <ele>0</ele>
        <time>2020-06-23T19:14:48Z</time>
      </trkpt>
      <trkpt lat="51.217743783404" lon="4.463856365919">
        <ele>0.8</ele>
        <time>2020-06-23T19:15:18Z</time>
      </trkpt>
      <trkpt lat="51.217711596908" lon="4.46474057255">
        <ele>1.6</ele>
        <time>2020-06-23T19:15:42Z</time>
      </trkpt>
      <trkpt lat="51.217659042395" lon="4.465619582403">
        <ele>0</ele>
        <time>2020-06-23T19:16:05Z</time>
      </trkpt>
      <trkpt lat="51.217615707972" lon="4.466515775151">
        <ele>0</ele>
        <time>2020-06-23T19:16:19Z</time>
      </trkpt>
      <trkpt lat="51.217615288877" lon="4.466752480007">
        <ele>0</ele>
        <time>2020-06-23T19:16:34Z</time>
      </trkpt>
      <trkpt lat="51.217651833961" lon="4.466925650061">
        <ele>0.4</ele>
        <time>2020-06-23T19:18:13Z</time>
      </trkpt>
      <trkpt lat="51.21759743543" lon="4.467789740132">
        <ele>3.2</ele>
        <time>2020-06-23T19:18:47Z</time>
      </trkpt>
      <trkpt lat="51.217506156539" lon="4.468641089715">
        <ele>0.8</ele>
        <time>2020-06-23T19:19:13Z</time>
      </trkpt>
      <trkpt lat="51.217465755781" lon="4.469491768746">
        <ele>0</ele>
        <time>2020-06-23T19:19:48Z</time>
      </trkpt>
      <trkpt lat="51.217462319202" lon="4.470351919324">
        <ele>1.8</ele>
        <time>2020-06-23T19:20:19Z</time>
      </trkpt>
      <trkpt lat="51.217412363078" lon="4.471197401577">
        <ele>1</ele>
        <time>2020-06-23T19:20:49Z</time>
      </trkpt>
      <trkpt lat="51.217370788854" lon="4.472060318182">
        <ele>0.2</ele>
        <time>2020-06-23T19:21:21Z</time>
      </trkpt>
      <trkpt lat="51.217343044765" lon="4.47293807075">
        <ele>0</ele>
        <time>2020-06-23T19:21:59Z</time>
      </trkpt>
      <trkpt lat="51.217338099444" lon="4.473023985225">
        <ele>0</ele>
        <time>2020-06-23T19:22:03Z</time>
      </trkpt>
      <trkpt lat="51.217341452204" lon="4.473915567928">
        <ele>3.2</ele>
        <time>2020-06-23T19:22:32Z</time>
      </trkpt>
      <trkpt lat="51.217296860496" lon="4.474212538645">
        <ele>0</ele>
        <time>2020-06-23T19:22:42Z</time>
      </trkpt>
      <trkpt lat="51.217287221311" lon="4.47451554433">
        <ele>0</ele>
        <time>2020-06-23T19:22:55Z</time>
      </trkpt>
      <trkpt lat="51.217282443628" lon="4.474944110877">
        <ele>0</ele>
        <time>2020-06-23T19:23:10Z</time>
      </trkpt>
      <trkpt lat="51.217257297928" lon="4.475018123054">
        <ele>0</ele>
        <time>2020-06-23T19:23:13Z</time>
      </trkpt>
      <trkpt lat="51.217270708968" lon="4.475092302869">
        <ele>0</ele>
        <time>2020-06-23T19:23:16Z</time>
      </trkpt>
      <trkpt lat="51.217247407286" lon="4.475947424307">
        <ele>0</ele>
        <time>2020-06-23T19:23:48Z</time>
      </trkpt>
      <trkpt lat="51.217182028466" lon="4.476826350341">
        <ele>3.2</ele>
        <time>2020-06-23T19:24:16Z</time>
      </trkpt>
      <trkpt lat="51.217151769807" lon="4.477699576683">
        <ele>2.6</ele>
        <time>2020-06-23T19:24:46Z</time>
      </trkpt>
      <trkpt lat="51.217135089826" lon="4.478554279026">
        <ele>0.2</ele>
        <time>2020-06-23T19:25:10Z</time>
      </trkpt>
      <trkpt lat="51.217099718208" lon="4.47942901411">
        <ele>1.2</ele>
        <time>2020-06-23T19:25:34Z</time>
      </trkpt>
      <trkpt lat="51.217047247514" lon="4.480296959855">
        <ele>0.4</ele>
        <time>2020-06-23T19:25:57Z</time>
      </trkpt>
      <trkpt lat="51.217020425434" lon="4.480671044052">
        <ele>1.6</ele>
        <time>2020-06-23T19:26:11Z</time>
      </trkpt>
      <trkpt lat="51.217036099587" lon="4.480727286601">
        <ele>0.2</ele>
        <time>2020-06-23T19:26:14Z</time>
      </trkpt>
      <trkpt lat="51.21698304216" lon="4.481384259923">
        <ele>0</ele>
        <time>2020-06-23T19:26:37Z</time>
      </trkpt>
      <trkpt lat="51.21695538189" lon="4.481447962363">
        <ele>0</ele>
        <time>2020-06-23T19:26:40Z</time>
      </trkpt>
      <trkpt lat="51.217136682387" lon="4.481773599178">
        <ele>0</ele>
        <time>2020-06-23T19:27:03Z</time>
      </trkpt>
      <trkpt lat="51.217665747915" lon="4.48153287101">
        <ele>0</ele>
        <time>2020-06-23T19:27:28Z</time>
      </trkpt>
      <trkpt lat="51.218201016049" lon="4.481251322989">
        <ele>0</ele>
        <time>2020-06-23T19:27:48Z</time>
      </trkpt>
      <trkpt lat="51.218733601975" lon="4.481004308396">
        <ele>1</ele>
        <time>2020-06-23T19:28:11Z</time>
      </trkpt>
      <trkpt lat="51.219239030545" lon="4.480659393211">
        <ele>0.8</ele>
        <time>2020-06-23T19:28:29Z</time>
      </trkpt>
      <trkpt lat="51.219368195624" lon="4.480432411359">
        <ele>0</ele>
        <time>2020-06-23T19:28:37Z</time>
      </trkpt>
      <trkpt lat="51.219233749948" lon="4.479571590229">
        <ele>0</ele>
        <time>2020-06-23T19:28:57Z</time>
      </trkpt>
      <trkpt lat="51.219047671768" lon="4.478737591179">
        <ele>0</ele>
        <time>2020-06-23T19:29:17Z</time>
      </trkpt>
      <trkpt lat="51.218871232773" lon="4.477905017052">
        <ele>0</ele>
        <time>2020-06-23T19:29:36Z</time>
      </trkpt>
      <trkpt lat="51.218738714934" lon="4.477070850364">
        <ele>0</ele>
        <time>2020-06-23T19:29:57Z</time>
      </trkpt>
      <trkpt lat="51.218762854806" lon="4.476199300402">
        <ele>0</ele>
        <time>2020-06-23T19:30:19Z</time>
      </trkpt>
      <trkpt lat="51.218830748196" lon="4.47535373433">
        <ele>0</ele>
        <time>2020-06-23T19:30:39Z</time>
      </trkpt>
      <trkpt lat="51.218927810598" lon="4.474487967879">
        <ele>0</ele>
        <time>2020-06-23T19:31:04Z</time>
      </trkpt>
      <trkpt lat="51.219030237416" lon="4.473631756794">
        <ele>0</ele>
        <time>2020-06-23T19:31:26Z</time>
      </trkpt>
      <trkpt lat="51.219186224575" lon="4.472779233745">
        <ele>0</ele>
        <time>2020-06-23T19:31:47Z</time>
      </trkpt>
      <trkpt lat="51.219323017183" lon="4.471943558315">
        <ele>0</ele>
        <time>2020-06-23T19:32:09Z</time>
      </trkpt>
      <trkpt lat="51.219422258879" lon="4.471072595086">
        <ele>0</ele>
        <time>2020-06-23T19:32:30Z</time>
      </trkpt>
      <trkpt lat="51.219590483612" lon="4.470220994046">
        <ele>0</ele>
        <time>2020-06-23T19:32:50Z</time>
      </trkpt>
      <trkpt lat="51.219955850633" lon="4.46893738988">
        <ele>0</ele>
        <time>2020-06-23T19:33:20Z</time>
      </trkpt>
      <trkpt lat="51.21995694028" lon="4.468054859629">
        <ele>0</ele>
        <time>2020-06-23T19:33:41Z</time>
      </trkpt>
      <trkpt lat="51.219947384914" lon="4.467158666881">
        <ele>0</ele>
        <time>2020-06-23T19:33:57Z</time>
      </trkpt>
      <trkpt lat="51.21995610209" lon="4.466298432484">
        <ele>0</ele>
        <time>2020-06-23T19:34:17Z</time>
      </trkpt>
      <trkpt lat="51.220035897778" lon="4.465421518106">
        <ele>2.2</ele>
        <time>2020-06-23T19:34:41Z</time>
      </trkpt>
      <trkpt lat="51.220136061483" lon="4.464523816616">
        <ele>9.4</ele>
        <time>2020-06-23T19:35:03Z</time>
      </trkpt>
      <trkpt lat="51.220102533883" lon="4.463653607758">
        <ele>3.2</ele>
        <time>2020-06-23T19:35:22Z</time>
      </trkpt>
      <trkpt lat="51.220084177522" lon="4.463344399467">
        <ele>1.4</ele>
        <time>2020-06-23T19:35:37Z</time>
      </trkpt>
      <trkpt lat="51.220647273564" lon="4.463425200983">
        <ele>14</ele>
        <time>2020-06-23T19:36:01Z</time>
      </trkpt>
      <trkpt lat="51.221206597751" lon="4.463479683333">
        <ele>17.2</ele>
        <time>2020-06-23T19:36:22Z</time>
      </trkpt>
      <trkpt lat="51.221754438735" lon="4.463537266986">
        <ele>10.8</ele>
        <time>2020-06-23T19:36:41Z</time>
      </trkpt>
      <trkpt lat="51.22230051952" lon="4.463581271961">
        <ele>12.2</ele>
        <time>2020-06-23T19:37:02Z</time>
      </trkpt>
      <trkpt lat="51.222694301182" lon="4.463531818751">
        <ele>3.2</ele>
        <time>2020-06-23T19:37:13Z</time>
      </trkpt>
      <trkpt lat="51.223148348705" lon="4.463995673097">
        <ele>0.8</ele>
        <time>2020-06-23T19:37:32Z</time>
      </trkpt>
      <trkpt lat="51.223623350978" lon="4.464394567718">
        <ele>0</ele>
        <time>2020-06-23T19:37:50Z</time>
      </trkpt>
      <trkpt lat="51.224106064599" lon="4.464841239169">
        <ele>6.6</ele>
        <time>2020-06-23T19:38:07Z</time>
      </trkpt>
      <trkpt lat="51.224558854837" lon="4.465341051866">
        <ele>3.8</ele>
        <time>2020-06-23T19:38:27Z</time>
      </trkpt>
      <trkpt lat="51.225049279806" lon="4.465782610358">
        <ele>6.8</ele>
        <time>2020-06-23T19:38:46Z</time>
      </trkpt>
      <trkpt lat="51.225569963434" lon="4.466109504458">
        <ele>1.6</ele>
        <time>2020-06-23T19:39:07Z</time>
      </trkpt>
      <trkpt lat="51.226116630952" lon="4.466305305642">
        <ele>1.8</ele>
        <time>2020-06-23T19:39:31Z</time>
      </trkpt>
      <trkpt lat="51.226674362578" lon="4.466404295881">
        <ele>0</ele>
        <time>2020-06-23T19:39:46Z</time>
      </trkpt>
      <trkpt lat="51.227230417824" lon="4.466535304978">
        <ele>1</ele>
        <time>2020-06-23T19:40:07Z</time>
      </trkpt>
      <trkpt lat="51.227729643788" lon="4.466854990644">
        <ele>0</ele>
        <time>2020-06-23T19:40:29Z</time>
      </trkpt>
      <trkpt lat="51.227808182191" lon="4.466894301755">
        <ele>0</ele>
        <time>2020-06-23T19:40:32Z</time>
      </trkpt>
      <trkpt lat="51.228290728174" lon="4.467344409785">
        <ele>0</ele>
        <time>2020-06-23T19:40:55Z</time>
      </trkpt>
      <trkpt lat="51.228819793702" lon="4.467608439635">
        <ele>2.2</ele>
        <time>2020-06-23T19:41:16Z</time>
      </trkpt>
      <trkpt lat="51.229351960533" lon="4.467798122032">
        <ele>0</ele>
        <time>2020-06-23T19:41:35Z</time>
      </trkpt>
      <trkpt lat="51.229896113481" lon="4.467755374342">
        <ele>0</ele>
        <time>2020-06-23T19:41:57Z</time>
      </trkpt>
      <trkpt lat="51.230423921724" lon="4.467569379981">
        <ele>0</ele>
        <time>2020-06-23T19:42:18Z</time>
      </trkpt>
      <trkpt lat="51.230973606726" lon="4.467416661763">
        <ele>0</ele>
        <time>2020-06-23T19:42:43Z</time>
      </trkpt>
      <trkpt lat="51.231502923711" lon="4.467326975433">
        <ele>0</ele>
        <time>2020-06-23T19:43:06Z</time>
      </trkpt>
      <trkpt lat="51.231766031552" lon="4.467256986568">
        <ele>0</ele>
        <time>2020-06-23T19:43:19Z</time>
      </trkpt>
      <trkpt lat="51.231724960242" lon="4.467178531984">
        <ele>0</ele>
        <time>2020-06-23T19:43:22Z</time>
      </trkpt>
      <trkpt lat="51.23118281895" lon="4.467083397419">
        <ele>0</ele>
        <time>2020-06-23T19:43:42Z</time>
      </trkpt>
      <trkpt lat="51.231520441882" lon="4.466403457691">
        <ele>0</ele>
        <time>2020-06-23T19:44:02Z</time>
      </trkpt>
      <trkpt lat="51.231804253016" lon="4.46566341974">
        <ele>0.6</ele>
        <time>2020-06-23T19:44:19Z</time>
      </trkpt>
      <trkpt lat="51.23192294072" lon="4.465445825616">
        <ele>2.4</ele>
        <time>2020-06-23T19:44:27Z</time>
      </trkpt>
      <trkpt lat="51.232262323851" lon="4.464769322467">
        <ele>1.6</ele>
        <time>2020-06-23T19:44:52Z</time>
      </trkpt>
      <trkpt lat="51.232437337923" lon="4.463963821877">
        <ele>0</ele>
        <time>2020-06-23T19:45:10Z</time>
      </trkpt>
      <trkpt lat="51.232398529726" lon="4.463098893616">
        <ele>0</ele>
        <time>2020-06-23T19:45:30Z</time>
      </trkpt>
      <trkpt lat="51.232276153986" lon="4.462253998096">
        <ele>0</ele>
        <time>2020-06-23T19:45:53Z</time>
      </trkpt>
      <trkpt lat="51.232144139061" lon="4.461398038468">
        <ele>0</ele>
        <time>2020-06-23T19:46:12Z</time>
      </trkpt>
      <trkpt lat="51.231987146074" lon="4.460560099925">
        <ele>0</ele>
        <time>2020-06-23T19:46:32Z</time>
      </trkpt>
      <trkpt lat="51.231864351239" lon="4.459710007627">
        <ele>0</ele>
        <time>2020-06-23T19:46:52Z</time>
      </trkpt>
      <trkpt lat="51.231673663014" lon="4.458874835111">
        <ele>0</ele>
        <time>2020-06-23T19:47:11Z</time>
      </trkpt>
      <trkpt lat="51.231545839039" lon="4.458377369346">
        <ele>0</ele>
        <time>2020-06-23T19:47:24Z</time>
      </trkpt>
      <trkpt lat="51.231263117552" lon="4.457853835872">
        <ele>0</ele>
        <time>2020-06-23T19:47:47Z</time>
      </trkpt>
      <trkpt lat="51.231234451454" lon="4.456979938978">
        <ele>0</ele>
        <time>2020-06-23T19:48:09Z</time>
      </trkpt>
      <trkpt lat="51.231412650648" lon="4.45623378224">
        <ele>2.6</ele>
        <time>2020-06-23T19:48:30Z</time>
      </trkpt>
      <trkpt lat="51.231425223498" lon="4.456115932726">
        <ele>2</ele>
        <time>2020-06-23T19:48:34Z</time>
      </trkpt>
      <trkpt lat="51.231246269933" lon="4.455302469331">
        <ele>0</ele>
        <time>2020-06-23T19:48:53Z</time>
      </trkpt>
      <trkpt lat="51.231149878083" lon="4.454445336237">
        <ele>0</ele>
        <time>2020-06-23T19:49:12Z</time>
      </trkpt>
      <trkpt lat="51.230993471829" lon="4.453596417405">
        <ele>0</ele>
        <time>2020-06-23T19:49:32Z</time>
      </trkpt>
      <trkpt lat="51.230847207674" lon="4.452763591821">
        <ele>0</ele>
        <time>2020-06-23T19:49:51Z</time>
      </trkpt>
      <trkpt lat="51.230705218288" lon="4.451913583342">
        <ele>0</ele>
        <time>2020-06-23T19:50:10Z</time>
      </trkpt>
      <trkpt lat="51.230555601373" lon="4.451078746102">
        <ele>0</ele>
        <time>2020-06-23T19:50:28Z</time>
      </trkpt>
      <trkpt lat="51.230426520113" lon="4.450746319948">
        <ele>0</ele>
        <time>2020-06-23T19:50:38Z</time>
      </trkpt>
      <trkpt lat="51.229880523147" lon="4.450884369841">
        <ele>0</ele>
        <time>2020-06-23T19:50:57Z</time>
      </trkpt>
      <trkpt lat="51.229694444967" lon="4.450926782255">
        <ele>0</ele>
        <time>2020-06-23T19:51:05Z</time>
      </trkpt>
      <trkpt lat="51.229665946507" lon="4.45086266072">
        <ele>0</ele>
        <time>2020-06-23T19:51:07Z</time>
      </trkpt>
      <trkpt lat="51.229585731724" lon="4.450010640585">
        <ele>0</ele>
        <time>2020-06-23T19:51:27Z</time>
      </trkpt>
      <trkpt lat="51.229461595785" lon="4.449155351509">
        <ele>0</ele>
        <time>2020-06-23T19:51:45Z</time>
      </trkpt>
      <trkpt lat="51.229138724997" lon="4.448456803963">
        <ele>0.2</ele>
        <time>2020-06-23T19:52:03Z</time>
      </trkpt>
      <trkpt lat="51.228721557834" lon="4.448947731846">
        <ele>0</ele>
        <time>2020-06-23T19:52:21Z</time>
      </trkpt>
      <trkpt lat="51.228639666671" lon="4.449056193632">
        <ele>0</ele>
        <time>2020-06-23T19:52:25Z</time>
      </trkpt>
      <trkpt lat="51.228625920355" lon="4.449014870865">
        <ele>0</ele>
        <time>2020-06-23T19:52:27Z</time>
      </trkpt>
      <trkpt lat="51.22876631718" lon="4.448910180934">
        <ele>0</ele>
        <time>2020-06-23T19:52:34Z</time>
      </trkpt>
      <trkpt lat="51.228757851461" lon="4.448992742649">
        <ele>0</ele>
        <time>2020-06-23T19:52:36Z</time>
      </trkpt>
      <trkpt lat="51.228540760251" lon="4.449211677877">
        <ele>0</ele>
        <time>2020-06-23T19:52:47Z</time>
      </trkpt>
      <trkpt lat="51.228543945373" lon="4.44919550081">
        <ele>0</ele>
        <time>2020-06-23T19:52:50Z</time>
      </trkpt>
      <trkpt lat="51.228573282023" lon="4.449244367287">
        <ele>0</ele>
        <time>2020-06-23T19:52:53Z</time>
      </trkpt>
      <trkpt lat="51.228562469372" lon="4.44923489574">
        <ele>0</ele>
        <time>2020-06-23T19:52:59Z</time>
      </trkpt>
      <trkpt lat="51.228824655204" lon="4.448837677499">
        <ele>0</ele>
        <time>2020-06-23T19:53:13Z</time>
      </trkpt>
      <trkpt lat="51.228842341013" lon="4.448887382166">
        <ele>0</ele>
        <time>2020-06-23T19:53:15Z</time>
      </trkpt>
      <trkpt lat="51.228516620379" lon="4.449285522416">
        <ele>0</ele>
        <time>2020-06-23T19:53:32Z</time>
      </trkpt>
    </trkseg>
  </trk>
</gpx>